sensor_id;sensor_type;location;lat;lon;timestamp;P1;durP1;ratioP1;P2;durP2;ratioP2
66546;SDS011;53400;50.364;14.874;2023-02-21T00:01:06;7.25;;;3.25;;
66546;SDS011;53400;50.364;14.874;2023-02-21T00:03:50;7.70;;;3.20;;
66546;SDS011;53400;50.364;14.874;2023-02-21T00:06:35;5.57;;;2.35;;
66546;SDS011;53400;50.364;14.874;2023-02-21T00:09:19;6.05;;;2.80;;
66546;SDS011;53400;50.364;14.874;2023-02-21T00:12:04;8.85;;;3.10;;
66546;SDS011;53400;50.364;14.874;2023-02-21T00:14:49;8.35;;;3.30;;
66546;SDS011;53400;50.364;14.874;2023-02-21T00:17:35;7.72;;;3.00;;
66546;SDS011;53400;50.364;14.874;2023-02-21T00:20:19;6.65;;;2.83;;
66546;SDS011;53400;50.364;14.874;2023-02-21T00:23:03;6.18;;;2.67;;
66546;SDS011;53400;50.364;14.874;2023-02-21T00:25:48;6.30;;;2.78;;
66546;SDS011;53400;50.364;14.874;2023-02-21T00:28:32;6.65;;;3.10;;
66546;SDS011;53400;50.364;14.874;2023-02-21T00:31:17;6.13;;;2.50;;
66546;SDS011;53400;50.364;14.874;2023-02-21T00:34:03;5.93;;;2.80;;
66546;SDS011;53400;50.364;14.874;2023-02-21T00:36:48;6.65;;;3.03;;
66546;SDS011;53400;50.364;14.874;2023-02-21T00:39:32;6.13;;;2.80;;
66546;SDS011;53400;50.364;14.874;2023-02-21T00:42:16;7.90;;;3.28;;
66546;SDS011;53400;50.364;14.874;2023-02-21T00:45:01;6.22;;;2.50;;
66546;SDS011;53400;50.364;14.874;2023-02-21T00:47:46;7.30;;;2.88;;
66546;SDS011;53400;50.364;14.874;2023-02-21T00:50:31;5.68;;;3.05;;
66546;SDS011;53400;50.364;14.874;2023-02-21T00:53:16;6.45;;;2.90;;
66546;SDS011;53400;50.364;14.874;2023-02-21T00:56:00;7.15;;;2.88;;
66546;SDS011;53400;50.364;14.874;2023-02-21T00:58:45;7.07;;;3.03;;
66546;SDS011;53400;50.364;14.874;2023-02-21T01:01:29;9.35;;;3.08;;
66546;SDS011;53400;50.364;14.874;2023-02-21T01:04:14;8.02;;;2.72;;
66546;SDS011;53400;50.364;14.874;2023-02-21T01:07:00;7.55;;;3.25;;
66546;SDS011;53400;50.364;14.874;2023-02-21T01:09:44;6.40;;;2.67;;
66546;SDS011;53400;50.364;14.874;2023-02-21T01:12:28;8.73;;;3.20;;
66546;SDS011;53400;50.364;14.874;2023-02-21T01:15:13;9.90;;;2.58;;
66546;SDS011;53400;50.364;14.874;2023-02-21T01:17:58;6.70;;;2.75;;
66546;SDS011;53400;50.364;14.874;2023-02-21T01:20:42;8.32;;;3.05;;
66546;SDS011;53400;50.364;14.874;2023-02-21T01:23:28;7.93;;;3.08;;
66546;SDS011;53400;50.364;14.874;2023-02-21T01:26:13;7.00;;;3.35;;
66546;SDS011;53400;50.364;14.874;2023-02-21T01:28:57;7.20;;;2.88;;
66546;SDS011;53400;50.364;14.874;2023-02-21T01:31:42;7.22;;;3.25;;
66546;SDS011;53400;50.364;14.874;2023-02-21T01:34:26;6.10;;;2.67;;
66546;SDS011;53400;50.364;14.874;2023-02-21T01:37:11;6.75;;;2.83;;
66546;SDS011;53400;50.364;14.874;2023-02-21T01:39:57;6.25;;;3.20;;
66546;SDS011;53400;50.364;14.874;2023-02-21T01:42:41;6.28;;;2.63;;
66546;SDS011;53400;50.364;14.874;2023-02-21T01:45:37;5.10;;;2.55;;
66546;SDS011;53400;50.364;14.874;2023-02-21T01:48:25;6.57;;;2.88;;
66546;SDS011;53400;50.364;14.874;2023-02-21T01:51:12;8.88;;;2.65;;
66546;SDS011;53400;50.364;14.874;2023-02-21T01:54:00;8.48;;;2.83;;
66546;SDS011;53400;50.364;14.874;2023-02-21T01:56:46;8.10;;;3.42;;
66546;SDS011;53400;50.364;14.874;2023-02-21T01:59:32;6.70;;;2.83;;
66546;SDS011;53400;50.364;14.874;2023-02-21T02:02:17;5.88;;;2.35;;
66546;SDS011;53400;50.364;14.874;2023-02-21T02:05:08;7.20;;;2.90;;
66546;SDS011;53400;50.364;14.874;2023-02-21T02:07:54;8.85;;;3.55;;
66546;SDS011;53400;50.364;14.874;2023-02-21T02:10:39;8.40;;;3.45;;
66546;SDS011;53400;50.364;14.874;2023-02-21T02:16:21;7.55;;;3.22;;
66546;SDS011;53400;50.364;14.874;2023-02-21T02:19:01;7.65;;;2.90;;
66546;SDS011;53400;50.364;14.874;2023-02-21T02:22:00;8.05;;;3.05;;
66546;SDS011;53400;50.364;14.874;2023-02-21T02:24:48;7.57;;;3.05;;
66546;SDS011;53400;50.364;14.874;2023-02-21T02:36:33;6.32;;;2.70;;
66546;SDS011;53400;50.364;14.874;2023-02-21T02:39:09;8.20;;;3.30;;
66546;SDS011;53400;50.364;14.874;2023-02-21T02:41:45;11.13;;;3.40;;
66546;SDS011;53400;50.364;14.874;2023-02-21T02:44:18;7.82;;;3.63;;
66546;SDS011;53400;50.364;14.874;2023-02-21T02:46:48;6.57;;;2.83;;
66546;SDS011;53400;50.364;14.874;2023-02-21T02:49:17;9.93;;;4.72;;
66546;SDS011;53400;50.364;14.874;2023-02-21T02:51:46;7.00;;;3.42;;
66546;SDS011;53400;50.364;14.874;2023-02-21T02:54:12;9.48;;;3.85;;
66546;SDS011;53400;50.364;14.874;2023-02-21T02:56:38;7.35;;;3.70;;
66546;SDS011;53400;50.364;14.874;2023-02-21T02:59:05;8.02;;;3.78;;
66546;SDS011;53400;50.364;14.874;2023-02-21T03:01:45;10.40;;;4.18;;
66546;SDS011;53400;50.364;14.874;2023-02-21T03:04:43;7.43;;;3.72;;
66546;SDS011;53400;50.364;14.874;2023-02-21T03:07:25;8.25;;;3.67;;
66546;SDS011;53400;50.364;14.874;2023-02-21T03:10:04;8.75;;;3.90;;
66546;SDS011;53400;50.364;14.874;2023-02-21T03:12:40;9.63;;;3.65;;
66546;SDS011;53400;50.364;14.874;2023-02-21T03:15:14;6.63;;;3.15;;
66546;SDS011;53400;50.364;14.874;2023-02-21T03:17:46;7.90;;;3.28;;
66546;SDS011;53400;50.364;14.874;2023-02-21T03:20:17;7.88;;;3.50;;
66546;SDS011;53400;50.364;14.874;2023-02-21T03:22:46;7.57;;;3.90;;
66546;SDS011;53400;50.364;14.874;2023-02-21T03:25:15;9.30;;;4.05;;
66546;SDS011;53400;50.364;14.874;2023-02-21T03:27:43;7.18;;;3.45;;
66546;SDS011;53400;50.364;14.874;2023-02-21T03:30:10;8.75;;;3.22;;
66546;SDS011;53400;50.364;14.874;2023-02-21T03:32:37;7.47;;;3.08;;
66546;SDS011;53400;50.364;14.874;2023-02-21T03:35:08;8.75;;;3.55;;
66546;SDS011;53400;50.364;14.874;2023-02-21T03:37:34;9.15;;;3.50;;
66546;SDS011;53400;50.364;14.874;2023-02-21T03:40:03;6.40;;;3.17;;
66546;SDS011;53400;50.364;14.874;2023-02-21T03:42:31;8.00;;;3.33;;
66546;SDS011;53400;50.364;14.874;2023-02-21T03:44:57;7.72;;;3.10;;
66546;SDS011;53400;50.364;14.874;2023-02-21T03:47:24;7.03;;;3.15;;
66546;SDS011;53400;50.364;14.874;2023-02-21T03:49:50;6.75;;;2.65;;
66546;SDS011;53400;50.364;14.874;2023-02-21T03:52:16;7.68;;;3.50;;
66546;SDS011;53400;50.364;14.874;2023-02-21T03:54:42;5.90;;;2.60;;
66546;SDS011;53400;50.364;14.874;2023-02-21T03:57:09;7.13;;;2.90;;
66546;SDS011;53400;50.364;14.874;2023-02-21T03:59:35;7.95;;;3.00;;
66546;SDS011;53400;50.364;14.874;2023-02-21T04:02:01;9.13;;;3.25;;
66546;SDS011;53400;50.364;14.874;2023-02-21T04:04:27;7.53;;;3.28;;
66546;SDS011;53400;50.364;14.874;2023-02-21T04:06:53;7.50;;;2.58;;
66546;SDS011;53400;50.364;14.874;2023-02-21T04:09:19;5.32;;;2.33;;
66546;SDS011;53400;50.364;14.874;2023-02-21T04:11:45;5.80;;;2.72;;
66546;SDS011;53400;50.364;14.874;2023-02-21T04:14:13;7.07;;;2.78;;
66546;SDS011;53400;50.364;14.874;2023-02-21T04:16:39;6.72;;;2.47;;
66546;SDS011;53400;50.364;14.874;2023-02-21T04:19:06;5.47;;;2.38;;
66546;SDS011;53400;50.364;14.874;2023-02-21T04:21:32;7.88;;;4.38;;
66546;SDS011;53400;50.364;14.874;2023-02-21T04:23:58;6.22;;;2.33;;
66546;SDS011;53400;50.364;14.874;2023-02-21T04:26:24;6.97;;;2.70;;
66546;SDS011;53400;50.364;14.874;2023-02-21T04:28:50;5.78;;;2.65;;
66546;SDS011;53400;50.364;14.874;2023-02-21T04:31:18;5.65;;;2.42;;
66546;SDS011;53400;50.364;14.874;2023-02-21T04:33:44;6.45;;;2.15;;
66546;SDS011;53400;50.364;14.874;2023-02-21T04:36:10;7.03;;;2.60;;
66546;SDS011;53400;50.364;14.874;2023-02-21T04:38:36;6.85;;;2.95;;
66546;SDS011;53400;50.364;14.874;2023-02-21T04:41:02;6.72;;;2.58;;
66546;SDS011;53400;50.364;14.874;2023-02-21T04:43:28;7.22;;;2.30;;
66546;SDS011;53400;50.364;14.874;2023-02-21T04:45:53;5.88;;;2.58;;
66546;SDS011;53400;50.364;14.874;2023-02-21T04:48:21;7.03;;;2.65;;
66546;SDS011;53400;50.364;14.874;2023-02-21T04:50:47;6.20;;;2.80;;
66546;SDS011;53400;50.364;14.874;2023-02-21T04:53:13;7.90;;;2.80;;
66546;SDS011;53400;50.364;14.874;2023-02-21T04:55:39;7.30;;;3.10;;
66546;SDS011;53400;50.364;14.874;2023-02-21T04:58:05;7.25;;;2.72;;
66546;SDS011;53400;50.364;14.874;2023-02-21T05:00:31;5.63;;;2.35;;
66546;SDS011;53400;50.364;14.874;2023-02-21T05:02:57;6.00;;;2.53;;
66546;SDS011;53400;50.364;14.874;2023-02-21T05:05:24;6.22;;;2.65;;
66546;SDS011;53400;50.364;14.874;2023-02-21T05:07:50;4.97;;;1.90;;
66546;SDS011;53400;50.364;14.874;2023-02-21T05:10:16;6.25;;;2.35;;
66546;SDS011;53400;50.364;14.874;2023-02-21T05:12:43;6.57;;;2.75;;
66546;SDS011;53400;50.364;14.874;2023-02-21T05:15:09;6.10;;;2.65;;
66546;SDS011;53400;50.364;14.874;2023-02-21T05:17:37;5.80;;;2.33;;
66546;SDS011;53400;50.364;14.874;2023-02-21T05:20:03;10.10;;;8.60;;
66546;SDS011;53400;50.364;14.874;2023-02-21T05:22:32;6.07;;;2.22;;
66546;SDS011;53400;50.364;14.874;2023-02-21T05:24:58;6.20;;;2.30;;
66546;SDS011;53400;50.364;14.874;2023-02-21T05:27:24;6.82;;;2.38;;
66546;SDS011;53400;50.364;14.874;2023-02-21T05:29:50;4.70;;;2.00;;
66546;SDS011;53400;50.364;14.874;2023-02-21T05:32:19;5.07;;;1.98;;
66546;SDS011;53400;50.364;14.874;2023-02-21T05:34:46;5.70;;;2.00;;
66546;SDS011;53400;50.364;14.874;2023-02-21T05:37:12;6.22;;;2.60;;
66546;SDS011;53400;50.364;14.874;2023-02-21T05:39:39;8.25;;;2.38;;
66546;SDS011;53400;50.364;14.874;2023-02-21T05:42:05;6.15;;;2.42;;
66546;SDS011;53400;50.364;14.874;2023-02-21T05:44:32;4.72;;;1.95;;
66546;SDS011;53400;50.364;14.874;2023-02-21T05:46:58;5.07;;;2.03;;
66546;SDS011;53400;50.364;14.874;2023-02-21T05:49:23;4.93;;;1.63;;
66546;SDS011;53400;50.364;14.874;2023-02-21T05:51:50;5.50;;;2.28;;
66546;SDS011;53400;50.364;14.874;2023-02-21T05:54:17;5.18;;;2.05;;
66546;SDS011;53400;50.364;14.874;2023-02-21T05:56:46;4.22;;;1.52;;
66546;SDS011;53400;50.364;14.874;2023-02-21T05:59:15;5.03;;;2.08;;
66546;SDS011;53400;50.364;14.874;2023-02-21T06:01:44;4.80;;;2.00;;
66546;SDS011;53400;50.364;14.874;2023-02-21T06:04:10;5.82;;;2.20;;
66546;SDS011;53400;50.364;14.874;2023-02-21T06:06:36;3.90;;;1.63;;
66546;SDS011;53400;50.364;14.874;2023-02-21T06:09:02;5.10;;;2.10;;
66546;SDS011;53400;50.364;14.874;2023-02-21T06:11:30;4.68;;;2.00;;
66546;SDS011;53400;50.364;14.874;2023-02-21T06:14:03;3.25;;;1.27;;
66546;SDS011;53400;50.364;14.874;2023-02-21T06:16:31;4.93;;;1.92;;
66546;SDS011;53400;50.364;14.874;2023-02-21T06:18:57;5.53;;;2.00;;
66546;SDS011;53400;50.364;14.874;2023-02-21T06:21:24;4.47;;;1.73;;
66546;SDS011;53400;50.364;14.874;2023-02-21T06:23:49;6.28;;;2.00;;
66546;SDS011;53400;50.364;14.874;2023-02-21T06:26:15;3.00;;;1.33;;
66546;SDS011;53400;50.364;14.874;2023-02-21T06:28:42;5.57;;;1.58;;
66546;SDS011;53400;50.364;14.874;2023-02-21T06:31:09;5.47;;;2.13;;
66546;SDS011;53400;50.364;14.874;2023-02-21T06:33:35;4.38;;;1.52;;
66546;SDS011;53400;50.364;14.874;2023-02-21T06:36:04;5.18;;;2.00;;
66546;SDS011;53400;50.364;14.874;2023-02-21T06:38:31;3.20;;;1.55;;
66546;SDS011;53400;50.364;14.874;2023-02-21T06:40:57;4.82;;;2.00;;
66546;SDS011;53400;50.364;14.874;2023-02-21T06:43:22;6.07;;;2.17;;
66546;SDS011;53400;50.364;14.874;2023-02-21T06:45:48;5.18;;;2.22;;
66546;SDS011;53400;50.364;14.874;2023-02-21T06:48:16;4.95;;;1.80;;
66546;SDS011;53400;50.364;14.874;2023-02-21T06:50:42;4.72;;;2.08;;
66546;SDS011;53400;50.364;14.874;2023-02-21T06:53:08;5.38;;;2.10;;
66546;SDS011;53400;50.364;14.874;2023-02-21T06:55:34;4.60;;;1.92;;
66546;SDS011;53400;50.364;14.874;2023-02-21T06:58:00;4.00;;;1.55;;
66546;SDS011;53400;50.364;14.874;2023-02-21T07:00:26;5.00;;;1.83;;
66546;SDS011;53400;50.364;14.874;2023-02-21T07:02:52;4.75;;;1.80;;
66546;SDS011;53400;50.364;14.874;2023-02-21T07:05:20;4.90;;;1.83;;
66546;SDS011;53400;50.364;14.874;2023-02-21T07:07:45;3.38;;;1.25;;
66546;SDS011;53400;50.364;14.874;2023-02-21T07:10:12;5.57;;;2.25;;
66546;SDS011;53400;50.364;14.874;2023-02-21T07:12:37;4.65;;;1.75;;
66546;SDS011;53400;50.364;14.874;2023-02-21T07:15:04;8.68;;;2.55;;
66546;SDS011;53400;50.364;14.874;2023-02-21T07:17:30;6.45;;;2.30;;
66546;SDS011;53400;50.364;14.874;2023-02-21T07:19:56;6.10;;;2.25;;
66546;SDS011;53400;50.364;14.874;2023-02-21T07:22:23;6.43;;;2.53;;
66546;SDS011;53400;50.364;14.874;2023-02-21T07:24:50;4.50;;;2.17;;
66546;SDS011;53400;50.364;14.874;2023-02-21T07:27:17;6.07;;;2.63;;
66546;SDS011;53400;50.364;14.874;2023-02-21T07:29:44;5.75;;;2.35;;
66546;SDS011;53400;50.364;14.874;2023-02-21T07:32:11;6.25;;;2.30;;
66546;SDS011;53400;50.364;14.874;2023-02-21T07:34:37;4.95;;;2.10;;
66546;SDS011;53400;50.364;14.874;2023-02-21T07:37:03;5.10;;;2.15;;
66546;SDS011;53400;50.364;14.874;2023-02-21T07:39:31;5.70;;;2.08;;
66546;SDS011;53400;50.364;14.874;2023-02-21T07:41:57;5.43;;;2.05;;
66546;SDS011;53400;50.364;14.874;2023-02-21T07:44:23;4.20;;;1.90;;
66546;SDS011;53400;50.364;14.874;2023-02-21T07:46:48;5.05;;;2.08;;
66546;SDS011;53400;50.364;14.874;2023-02-21T07:49:15;4.55;;;1.90;;
66546;SDS011;53400;50.364;14.874;2023-02-21T07:51:41;5.53;;;2.28;;
66546;SDS011;53400;50.364;14.874;2023-02-21T07:54:07;5.10;;;2.13;;
66546;SDS011;53400;50.364;14.874;2023-02-21T07:56:34;6.90;;;2.53;;
66546;SDS011;53400;50.364;14.874;2023-02-21T07:59:03;6.00;;;2.35;;
66546;SDS011;53400;50.364;14.874;2023-02-21T08:01:29;5.38;;;2.38;;
66546;SDS011;53400;50.364;14.874;2023-02-21T08:03:55;5.93;;;2.67;;
66546;SDS011;53400;50.364;14.874;2023-02-21T08:06:21;6.78;;;3.05;;
66546;SDS011;53400;50.364;14.874;2023-02-21T08:08:47;6.47;;;3.00;;
66546;SDS011;53400;50.364;14.874;2023-02-21T08:11:13;6.50;;;3.10;;
66546;SDS011;53400;50.364;14.874;2023-02-21T08:13:40;7.45;;;3.00;;
66546;SDS011;53400;50.364;14.874;2023-02-21T08:16:06;8.10;;;3.03;;
66546;SDS011;53400;50.364;14.874;2023-02-21T08:18:32;6.50;;;2.78;;
66546;SDS011;53400;50.364;14.874;2023-02-21T08:20:57;7.25;;;3.00;;
66546;SDS011;53400;50.364;14.874;2023-02-21T08:23:24;8.27;;;3.28;;
66546;SDS011;53400;50.364;14.874;2023-02-21T08:25:50;6.93;;;3.00;;
66546;SDS011;53400;50.364;14.874;2023-02-21T08:28:16;7.22;;;3.60;;
66546;SDS011;53400;50.364;14.874;2023-02-21T08:30:43;8.18;;;2.90;;
66546;SDS011;53400;50.364;14.874;2023-02-21T08:33:09;6.82;;;3.38;;
66546;SDS011;53400;50.364;14.874;2023-02-21T08:35:35;6.10;;;3.15;;
66546;SDS011;53400;50.364;14.874;2023-02-21T08:38:01;8.10;;;3.63;;
66546;SDS011;53400;50.364;14.874;2023-02-21T08:40:28;8.68;;;3.80;;
66546;SDS011;53400;50.364;14.874;2023-02-21T08:42:55;6.63;;;3.42;;
66546;SDS011;53400;50.364;14.874;2023-02-21T08:45:23;5.68;;;2.95;;
66546;SDS011;53400;50.364;14.874;2023-02-21T08:47:52;6.22;;;2.90;;
66546;SDS011;53400;50.364;14.874;2023-02-21T08:50:18;7.25;;;2.97;;
66546;SDS011;53400;50.364;14.874;2023-02-21T08:52:45;6.22;;;3.00;;
66546;SDS011;53400;50.364;14.874;2023-02-21T08:55:12;6.35;;;2.58;;
66546;SDS011;53400;50.364;14.874;2023-02-21T08:57:38;6.60;;;2.95;;
66546;SDS011;53400;50.364;14.874;2023-02-21T09:00:04;5.85;;;2.90;;
66546;SDS011;53400;50.364;14.874;2023-02-21T09:02:39;7.32;;;3.33;;
66546;SDS011;53400;50.364;14.874;2023-02-21T09:05:07;5.43;;;2.55;;
66546;SDS011;53400;50.364;14.874;2023-02-21T09:07:34;7.10;;;2.95;;
66546;SDS011;53400;50.364;14.874;2023-02-21T09:10:00;6.68;;;2.90;;
66546;SDS011;53400;50.364;14.874;2023-02-21T09:12:26;6.95;;;4.18;;
66546;SDS011;53400;50.364;14.874;2023-02-21T09:14:51;8.55;;;3.08;;
66546;SDS011;53400;50.364;14.874;2023-02-21T09:17:18;6.53;;;2.65;;
66546;SDS011;53400;50.364;14.874;2023-02-21T09:19:43;7.00;;;3.15;;
66546;SDS011;53400;50.364;14.874;2023-02-21T09:22:10;5.55;;;2.80;;
66546;SDS011;53400;50.364;14.874;2023-02-21T09:24:36;6.10;;;2.97;;
66546;SDS011;53400;50.364;14.874;2023-02-21T09:27:03;5.78;;;2.50;;
66546;SDS011;53400;50.364;14.874;2023-02-21T09:29:30;6.40;;;3.17;;
66546;SDS011;53400;50.364;14.874;2023-02-21T09:31:58;6.72;;;3.28;;
66546;SDS011;53400;50.364;14.874;2023-02-21T09:34:24;7.40;;;3.30;;
66546;SDS011;53400;50.364;14.874;2023-02-21T09:36:50;6.57;;;3.35;;
66546;SDS011;53400;50.364;14.874;2023-02-21T09:39:17;6.60;;;3.35;;
66546;SDS011;53400;50.364;14.874;2023-02-21T09:41:43;7.45;;;3.55;;
66546;SDS011;53400;50.364;14.874;2023-02-21T09:44:11;6.63;;;3.47;;
66546;SDS011;53400;50.364;14.874;2023-02-21T09:46:41;6.90;;;3.45;;
66546;SDS011;53400;50.364;14.874;2023-02-21T09:49:10;6.55;;;3.60;;
66546;SDS011;53400;50.364;14.874;2023-02-21T09:51:42;7.82;;;3.72;;
66546;SDS011;53400;50.364;14.874;2023-02-21T09:54:11;7.93;;;3.38;;
66546;SDS011;53400;50.364;14.874;2023-02-21T09:56:44;7.03;;;3.45;;
66546;SDS011;53400;50.364;14.874;2023-02-21T09:59:11;6.20;;;3.30;;
66546;SDS011;53400;50.364;14.874;2023-02-21T10:01:42;6.32;;;2.50;;
66546;SDS011;53400;50.364;14.874;2023-02-21T10:04:20;6.30;;;3.50;;
66546;SDS011;53400;50.364;14.874;2023-02-21T10:06:56;6.53;;;3.13;;
66546;SDS011;53400;50.364;14.874;2023-02-21T10:09:28;6.82;;;3.40;;
66546;SDS011;53400;50.364;14.874;2023-02-21T10:12:07;6.65;;;3.00;;
66546;SDS011;53400;50.364;14.874;2023-02-21T10:14:44;5.47;;;3.10;;
66546;SDS011;53400;50.364;14.874;2023-02-21T10:17:28;6.32;;;3.22;;
66546;SDS011;53400;50.364;14.874;2023-02-21T10:19:59;7.57;;;3.58;;
66546;SDS011;53400;50.364;14.874;2023-02-21T10:22:32;6.80;;;3.45;;
66546;SDS011;53400;50.364;14.874;2023-02-21T10:24:59;6.72;;;3.42;;
66546;SDS011;53400;50.364;14.874;2023-02-21T10:27:36;7.32;;;3.60;;
66546;SDS011;53400;50.364;14.874;2023-02-21T10:30:03;6.85;;;4.10;;
66546;SDS011;53400;50.364;14.874;2023-02-21T10:32:34;8.15;;;4.80;;
66546;SDS011;53400;50.364;14.874;2023-02-21T10:35:02;7.95;;;4.28;;
66546;SDS011;53400;50.364;14.874;2023-02-21T10:37:31;7.90;;;4.80;;
66546;SDS011;53400;50.364;14.874;2023-02-21T10:40:04;8.50;;;4.72;;
66546;SDS011;53400;50.364;14.874;2023-02-21T10:42:43;7.78;;;4.78;;
66546;SDS011;53400;50.364;14.874;2023-02-21T10:45:15;8.55;;;4.65;;
66546;SDS011;53400;50.364;14.874;2023-02-21T10:47:46;8.38;;;5.07;;
66546;SDS011;53400;50.364;14.874;2023-02-21T10:50:26;7.72;;;3.88;;
66546;SDS011;53400;50.364;14.874;2023-02-21T10:53:05;9.10;;;4.85;;
66546;SDS011;53400;50.364;14.874;2023-02-21T10:55:32;9.00;;;5.03;;
66546;SDS011;53400;50.364;14.874;2023-02-21T10:58:05;7.85;;;4.68;;
66546;SDS011;53400;50.364;14.874;2023-02-21T11:00:33;7.47;;;4.40;;
66546;SDS011;53400;50.364;14.874;2023-02-21T11:03:01;7.38;;;4.18;;
66546;SDS011;53400;50.364;14.874;2023-02-21T11:05:30;7.70;;;4.38;;
66546;SDS011;53400;50.364;14.874;2023-02-21T11:07:57;7.40;;;3.75;;
66546;SDS011;53400;50.364;14.874;2023-02-21T11:10:27;7.38;;;3.75;;
66546;SDS011;53400;50.364;14.874;2023-02-21T11:13:05;7.70;;;3.78;;
66546;SDS011;53400;50.364;14.874;2023-02-21T11:15:37;7.93;;;3.80;;
66546;SDS011;53400;50.364;14.874;2023-02-21T11:18:11;8.52;;;3.75;;
66546;SDS011;53400;50.364;14.874;2023-02-21T11:20:39;6.18;;;3.40;;
66546;SDS011;53400;50.364;14.874;2023-02-21T11:23:16;7.07;;;3.65;;
66546;SDS011;53400;50.364;14.874;2023-02-21T11:25:43;7.35;;;3.97;;
66546;SDS011;53400;50.364;14.874;2023-02-21T11:28:18;8.13;;;4.10;;
66546;SDS011;53400;50.364;14.874;2023-02-21T11:30:47;8.65;;;3.47;;
66546;SDS011;53400;50.364;14.874;2023-02-21T11:33:17;6.80;;;3.63;;
66546;SDS011;53400;50.364;14.874;2023-02-21T11:35:46;6.35;;;3.15;;
66546;SDS011;53400;50.364;14.874;2023-02-21T11:38:31;8.55;;;3.45;;
66546;SDS011;53400;50.364;14.874;2023-02-21T11:41:02;5.45;;;2.40;;
66546;SDS011;53400;50.364;14.874;2023-02-21T11:43:41;6.32;;;3.20;;
66546;SDS011;53400;50.364;14.874;2023-02-21T11:46:14;5.65;;;2.72;;
66546;SDS011;53400;50.364;14.874;2023-02-21T11:48:46;5.35;;;2.80;;
66546;SDS011;53400;50.364;14.874;2023-02-21T11:51:27;8.23;;;3.08;;
66546;SDS011;53400;50.364;14.874;2023-02-21T11:53:57;5.53;;;2.40;;
66546;SDS011;53400;50.364;14.874;2023-02-21T11:56:27;5.95;;;2.70;;
66546;SDS011;53400;50.364;14.874;2023-02-21T11:59:02;6.93;;;2.85;;
66546;SDS011;53400;50.364;14.874;2023-02-21T12:01:38;5.32;;;2.22;;
66546;SDS011;53400;50.364;14.874;2023-02-21T12:04:14;6.82;;;2.90;;
66546;SDS011;53400;50.364;14.874;2023-02-21T12:06:56;6.97;;;2.80;;
66546;SDS011;53400;50.364;14.874;2023-02-21T12:09:33;7.57;;;2.58;;
66546;SDS011;53400;50.364;14.874;2023-02-21T12:12:12;5.68;;;2.40;;
66546;SDS011;53400;50.364;14.874;2023-02-21T12:15:00;5.97;;;2.50;;
66546;SDS011;53400;50.364;14.874;2023-02-21T12:17:39;7.28;;;2.97;;
66546;SDS011;53400;50.364;14.874;2023-02-21T12:23:10;4.65;;;2.25;;
66546;SDS011;53400;50.364;14.874;2023-02-21T12:25:46;5.50;;;2.70;;
66546;SDS011;53400;50.364;14.874;2023-02-21T12:28:29;5.50;;;2.63;;
66546;SDS011;53400;50.364;14.874;2023-02-21T12:31:13;6.03;;;2.75;;
66546;SDS011;53400;50.364;14.874;2023-02-21T12:33:50;5.45;;;2.53;;
66546;SDS011;53400;50.364;14.874;2023-02-21T12:36:29;6.05;;;2.45;;
66546;SDS011;53400;50.364;14.874;2023-02-21T12:39:11;5.70;;;3.00;;
66546;SDS011;53400;50.364;14.874;2023-02-21T12:44:42;5.40;;;2.40;;
66546;SDS011;53400;50.364;14.874;2023-02-21T12:47:18;5.20;;;2.53;;
66546;SDS011;53400;50.364;14.874;2023-02-21T12:49:49;6.85;;;3.03;;
66546;SDS011;53400;50.364;14.874;2023-02-21T12:52:20;6.80;;;2.85;;
66546;SDS011;53400;50.364;14.874;2023-02-21T12:54:54;6.25;;;2.65;;
66546;SDS011;53400;50.364;14.874;2023-02-21T12:57:27;7.22;;;2.75;;
66546;SDS011;53400;50.364;14.874;2023-02-21T13:00:00;6.20;;;2.17;;
66546;SDS011;53400;50.364;14.874;2023-02-21T13:02:35;7.75;;;2.60;;
66546;SDS011;53400;50.364;14.874;2023-02-21T13:05:08;6.22;;;2.38;;
66546;SDS011;53400;50.364;14.874;2023-02-21T13:07:40;6.47;;;2.60;;
66546;SDS011;53400;50.364;14.874;2023-02-21T13:10:12;6.60;;;3.05;;
66546;SDS011;53400;50.364;14.874;2023-02-21T13:15:13;5.50;;;2.20;;
66546;SDS011;53400;50.364;14.874;2023-02-21T13:17:48;5.40;;;2.58;;
66546;SDS011;53400;50.364;14.874;2023-02-21T13:20:20;8.57;;;2.95;;
66546;SDS011;53400;50.364;14.874;2023-02-21T13:25:38;7.70;;;2.60;;
66546;SDS011;53400;50.364;14.874;2023-02-21T13:28:16;5.18;;;2.55;;
66546;SDS011;53400;50.364;14.874;2023-02-21T13:30:44;5.63;;;2.45;;
66546;SDS011;53400;50.364;14.874;2023-02-21T13:33:23;6.28;;;2.25;;
66546;SDS011;53400;50.364;14.874;2023-02-21T13:35:51;6.70;;;2.80;;
66546;SDS011;53400;50.364;14.874;2023-02-21T13:38:17;6.13;;;2.80;;
66546;SDS011;53400;50.364;14.874;2023-02-21T13:40:47;4.75;;;2.47;;
66546;SDS011;53400;50.364;14.874;2023-02-21T13:43:18;5.88;;;2.80;;
66546;SDS011;53400;50.364;14.874;2023-02-21T13:45:48;5.40;;;2.45;;
66546;SDS011;53400;50.364;14.874;2023-02-21T13:48:25;5.15;;;2.20;;
66546;SDS011;53400;50.364;14.874;2023-02-21T13:50:54;5.30;;;2.47;;
66546;SDS011;53400;50.364;14.874;2023-02-21T13:53:22;6.45;;;3.00;;
66546;SDS011;53400;50.364;14.874;2023-02-21T13:56:12;5.38;;;2.53;;
66546;SDS011;53400;50.364;14.874;2023-02-21T13:58:40;5.68;;;2.53;;
66546;SDS011;53400;50.364;14.874;2023-02-21T14:01:21;4.93;;;2.20;;
66546;SDS011;53400;50.364;14.874;2023-02-21T14:07:04;6.40;;;2.75;;
66546;SDS011;53400;50.364;14.874;2023-02-21T14:09:30;5.15;;;2.20;;
66546;SDS011;53400;50.364;14.874;2023-02-21T14:12:01;7.40;;;2.95;;
66546;SDS011;53400;50.364;14.874;2023-02-21T14:14:30;6.00;;;2.60;;
66546;SDS011;53400;50.364;14.874;2023-02-21T14:17:01;6.53;;;2.40;;
66546;SDS011;53400;50.364;14.874;2023-02-21T14:19:33;6.25;;;2.78;;
66546;SDS011;53400;50.364;14.874;2023-02-21T14:22:02;5.28;;;2.47;;
66546;SDS011;53400;50.364;14.874;2023-02-21T14:24:37;5.97;;;2.95;;
66546;SDS011;53400;50.364;14.874;2023-02-21T14:30:21;6.38;;;2.55;;
66546;SDS011;53400;50.364;14.874;2023-02-21T14:32:50;6.85;;;2.88;;
66546;SDS011;53400;50.364;14.874;2023-02-21T14:35:22;5.60;;;2.38;;
66546;SDS011;53400;50.364;14.874;2023-02-21T14:37:57;6.18;;;2.90;;
66546;SDS011;53400;50.364;14.874;2023-02-21T14:40:28;5.03;;;2.60;;
66546;SDS011;53400;50.364;14.874;2023-02-21T14:43:05;7.10;;;3.03;;
66546;SDS011;53400;50.364;14.874;2023-02-21T14:45:49;5.97;;;2.60;;
66546;SDS011;53400;50.364;14.874;2023-02-21T14:48:47;6.82;;;2.65;;
66546;SDS011;53400;50.364;14.874;2023-02-21T14:51:43;6.40;;;2.47;;
66546;SDS011;53400;50.364;14.874;2023-02-21T14:57:34;6.07;;;2.50;;
66546;SDS011;53400;50.364;14.874;2023-02-21T15:00:17;6.10;;;2.50;;
66546;SDS011;53400;50.364;14.874;2023-02-21T15:02:47;5.38;;;2.63;;
66546;SDS011;53400;50.364;14.874;2023-02-21T15:05:19;6.78;;;2.72;;
66546;SDS011;53400;50.364;14.874;2023-02-21T15:07:56;6.88;;;2.75;;
66546;SDS011;53400;50.364;14.874;2023-02-21T15:10:29;6.65;;;3.03;;
66546;SDS011;53400;50.364;14.874;2023-02-21T15:12:57;5.72;;;2.90;;
66546;SDS011;53400;50.364;14.874;2023-02-21T15:15:25;7.90;;;2.78;;
66546;SDS011;53400;50.364;14.874;2023-02-21T15:18:04;6.88;;;3.25;;
66546;SDS011;53400;50.364;14.874;2023-02-21T15:20:32;9.32;;;3.63;;
66546;SDS011;53400;50.364;14.874;2023-02-21T15:23:01;5.97;;;3.10;;
66546;SDS011;53400;50.364;14.874;2023-02-21T15:25:38;5.90;;;2.55;;
66546;SDS011;53400;50.364;14.874;2023-02-21T15:28:05;6.43;;;3.20;;
66546;SDS011;53400;50.364;14.874;2023-02-21T15:30:54;7.00;;;3.55;;
66546;SDS011;53400;50.364;14.874;2023-02-21T15:33:23;8.38;;;3.85;;
66546;SDS011;53400;50.364;14.874;2023-02-21T15:35:52;7.10;;;2.72;;